| time (UTC) | temp C | wind direction | speed KPH | gust KPH | rain 1hr cm | rain 24hr cm | rain mn cm | humidity % | barometer mb |
| 20260507154514 | 16 | 285 | 6.4 | 17.7 | 0.00 | 0.00 | 0.00 | 37 | 1011.6 |
| 20260507153016 | 15 | 89 | 11.3 | 16.1 | 0.00 | 0.00 | 0.00 | 40 | 1011.9 |
| 20260507151506 | 14 | 98 | 3.2 | 8.0 | 0.00 | 0.00 | 0.00 | 42 | 1011.9 |
| 20260507150101 | 13 | 96 | 6.4 | 11.3 | 0.00 | 0.00 | 0.00 | 43 | 1012.0 |
| 20260507144604 | 13 | 93 | 6.4 | 16.1 | 0.00 | 0.00 | 0.00 | 45 | 1012.0 |
| 20260507143059 | 12 | 85 | 9.7 | 16.1 | 0.00 | 0.00 | 0.00 | 48 | 1011.9 |
| 20260507141607 | 11 | 96 | 9.7 | 12.9 | 0.00 | 0.00 | 0.00 | 49 | 1011.7 |
| 20260507140057 | 11 | 82 | 4.8 | 6.4 | 0.00 | 0.00 | 0.00 | 52 | 1011.7 |
| 20260507134549 | 9 | 59 | 0.0 | 0.0 | 0.00 | 0.00 | 0.00 | 58 | 1011.6 |
| 20260507133030 | 8 | 59 | 0.0 | 0.0 | 0.00 | 0.00 | 0.00 | 59 | 1011.5 |
| 20260507131531 | 7 | 60 | 0.0 | 0.0 | 0.00 | 0.00 | 0.00 | 63 | 1011.3 |
| 20260507130033 | 6 | 59 | 0.0 | 0.0 | 0.00 | 0.00 | 0.00 | 65 | 1011.1 |
| 20260507124527 | 6 | 73 | 0.0 | 3.2 | 0.00 | 0.00 | 0.00 | 65 | 1011.0 |
| 20260507123035 | 5 | 88 | 0.0 | 0.0 | 0.00 | 0.00 | 0.00 | 66 | 1010.9 |
| 20260507121526 | 5 | 90 | 0.0 | 0.0 | 0.00 | 0.00 | 0.00 | 68 | 1010.6 |
| 20260507120022 | -17 | 0.0 | 0.0 | 0.00 | 0.00 | 0.00 | 1010.7 | ||
| 20260507114517 | -17 | 0.0 | 0.0 | 0.00 | 0.00 | 0.00 | 1010.8 | ||
| 20260507113059 | -17 | 0.0 | 0.0 | 0.00 | 0.00 | 0.00 | 1010.9 | ||
| 20260507111603 | -17 | 0.0 | 0.0 | 0.00 | 0.00 | 0.00 | 1011.0 | ||
| 20260507110042 | 2 | 75 | 0.0 | 0.0 | 0.00 | 0.00 | 0.00 | 72 | 1011.1 |
| 20260507104541 | 2 | 75 | 0.0 | 0.0 | 0.00 | 0.00 | 0.00 | 73 | 1011.2 |
| 20260507103040 | 2 | 77 | 0.0 | 0.0 | 0.00 | 0.00 | 0.00 | 73 | 1011.3 |
| 20260507101543 | 2 | 80 | 0.0 | 0.0 | 0.00 | 0.00 | 0.00 | 74 | 1011.2 |
| 20260507100040 | 2 | 81 | 0.0 | 0.0 | 0.00 | 0.00 | 0.00 | 74 | 1011.2 |
| 20260507094540 | 2 | 81 | 0.0 | 0.0 | 0.00 | 0.00 | 0.00 | 71 | 1011.2 |
| 20260507093041 | 3 | 82 | 0.0 | 0.0 | 0.00 | 0.00 | 0.00 | 70 | 1011.2 |
| 20260507091534 | 3 | 134 | 0.0 | 0.0 | 0.00 | 0.00 | 0.00 | 70 | 1011.3 |
| 20260507090015 | 3 | 134 | 0.0 | 0.0 | 0.00 | 0.00 | 0.00 | 67 | 1011.5 |
| 20260507084515 | 3 | 134 | 0.0 | 0.0 | 0.00 | 0.00 | 0.00 | 65 | 1011.5 |
| 20260507083011 | 4 | 134 | 0.0 | 0.0 | 0.00 | 0.00 | 0.00 | 64 | 1011.4 |
| 20260507081507 | 4 | 134 | 0.0 | 0.0 | 0.00 | 0.00 | 0.00 | 62 | 1011.7 |
| 20260507080002 | 5 | 134 | 0.0 | 0.0 | 0.00 | 0.00 | 0.00 | 58 | 1011.8 |
| 20260507074600 | 6 | 122 | 0.0 | 6.4 | 0.00 | 0.00 | 0.00 | 56 | 1012.0 |
| 20260507073056 | 7 | 141 | 8.0 | 16.1 | 0.00 | 0.00 | 0.00 | 50 | 1012.2 |
| 20260507071552 | 8 | 129 | 0.0 | 3.2 | 0.00 | 0.00 | 0.00 | 48 | 1012.3 |
| 20260507070044 | 8 | 145 | 0.0 | 3.2 | 0.00 | 0.00 | 0.00 | 44 | 1012.4 |
| 20260507064537 | 8 | 37 | 9.7 | 19.3 | 0.00 | 0.00 | 0.00 | 44 | 1012.6 |
| 20260507063033 | 8 | 108 | 0.0 | 12.9 | 0.00 | 0.00 | 0.00 | 46 | 1012.7 |
| 20260507061532 | 8 | 101 | 8.0 | 19.3 | 0.00 | 0.00 | 0.00 | 48 | 1012.9 |
| 20260507060028 | 7 | 54 | 0.0 | 11.3 | 0.00 | 0.00 | 0.00 | 52 | 1012.9 |
| 20260507054526 | 7 | 59 | 0.0 | 0.0 | 0.00 | 0.00 | 0.00 | 54 | 1013.1 |
| 20260507053027 | 6 | 177 | 0.0 | 0.0 | 0.00 | 0.00 | 0.00 | 57 | 1013.2 |
| 20260507051525 | 7 | 177 | 0.0 | 0.0 | 0.00 | 0.00 | 0.00 | 57 | 1013.3 |
| 20260507050013 | 7 | 178 | 0.0 | 0.0 | 0.00 | 0.00 | 0.00 | 55 | 1013.4 |
| 20260507044512 | 7 | 37 | 0.0 | 0.0 | 0.00 | 0.00 | 0.00 | 54 | 1013.6 |
| 20260507043011 | 7 | 8 | 3.2 | 12.9 | 0.00 | 0.00 | 0.00 | 54 | 1013.5 |
| 20260507041528 | 6 | 29 | 0.0 | 0.0 | 0.00 | 0.00 | 0.00 | 57 | 1013.6 |
| 20260507040008 | 6 | 28 | 0.0 | 3.2 | 0.00 | 0.00 | 0.00 | 57 | 1013.7 |
| 20260507034512 | 7 | 30 | 6.4 | 14.5 | 0.00 | 0.00 | 0.00 | 56 | 1013.8 |
| 20260507033009 | 7 | 313 | 9.7 | 17.7 | 0.00 | 0.00 | 0.00 | 55 | 1013.8 |
| 20260507031505 | 7 | 95 | 11.3 | 22.5 | 0.00 | 0.00 | 0.00 | 55 | 1014.1 |
| 20260507030046 | 8 | 156 | 12.9 | 25.7 | 0.00 | 0.00 | 0.00 | 52 | 1014.1 |
| 20260507024546 | 8 | 82 | 12.9 | 22.5 | 0.00 | 0.00 | 0.00 | 50 | 1014.2 |
| 20260507023032 | 9 | 150 | 8.0 | 19.3 | 0.00 | 0.00 | 0.00 | 48 | 1014.3 |
| 20260507021530 | 10 | 15 | 14.5 | 20.9 | 0.00 | 0.00 | 0.00 | 42 | 1014.5 |
| 20260507020030 | 11 | 181 | 0.0 | 0.0 | 0.00 | 0.00 | 0.00 | 33 | 1014.4 |
| 20260507014546 | 12 | 273 | 0.0 | 3.2 | 0.00 | 0.00 | 0.00 | 29 | 1014.3 |
| 20260507013040 | 12 | 213 | 3.2 | 16.1 | 0.00 | 0.00 | 0.00 | 28 | 1014.5 |
| 20260507011536 | 13 | 252 | 6.4 | 19.3 | 0.00 | 0.00 | 0.00 | 27 | 1014.5 |
| 20260507010027 | 13 | 65 | 3.2 | 20.9 | 0.00 | 0.00 | 0.00 | 27 | 1014.7 |
| 20260507004523 | 12 | 149 | 8.0 | 20.9 | 0.00 | 0.00 | 0.00 | 27 | 1014.9 |
| 20260507003011 | 13 | 224 | 9.7 | 29.0 | 0.00 | 0.00 | 0.00 | 27 | 1014.9 |
| 20260507001509 | 13 | 200 | 12.9 | 24.1 | 0.00 | 0.00 | 0.00 | 27 | 1015.0 |
| 20260507000020 | 13 | 115 | 6.4 | 27.4 | 0.00 | 0.00 | 0.00 | 27 | 1015.3 |
| 20260506234506 | 13 | 64 | 3.2 | 19.3 | 0.00 | 0.00 | 0.00 | 29 | 1015.5 |
| 20260506233004 | 13 | 191 | 9.7 | 16.1 | 0.00 | 0.00 | 0.00 | 28 | 1015.6 |
| 20260506231501 | 13 | 143 | 6.4 | 11.3 | 0.00 | 0.00 | 0.00 | 28 | 1015.8 |
| 20260506230059 | 12 | 18 | 6.4 | 16.1 | 0.00 | 0.10 | 0.00 | 29 | 1016.0 |
| 20260506224558 | 12 | 100 | 8.0 | 27.4 | 0.00 | 0.10 | 0.00 | 28 | 1016.3 |
| 20260506223101 | 13 | 158 | 6.4 | 20.9 | 0.00 | 0.10 | 0.00 | 29 | 1016.6 |
| 20260506221541 | 12 | 288 | 8.0 | 19.3 | 0.00 | 0.10 | 0.00 | 29 | 1016.7 |
| 20260506220038 | 12 | 180 | 9.7 | 32.2 | 0.00 | 0.10 | 0.00 | 28 | 1017.0 |
| 20260506214539 | 12 | 51 | 8.0 | 24.1 | 0.00 | 0.10 | 0.00 | 29 | 1017.2 |
| 20260506213036 | 11 | 255 | 9.7 | 33.8 | 0.00 | 0.10 | 0.00 | 28 | 1017.5 |
| 20260506211531 | 11 | 250 | 9.7 | 24.1 | 0.00 | 0.10 | 0.00 | 29 | 1017.8 |
| 20260506210036 | 11 | 77 | 11.3 | 33.8 | 0.00 | 0.10 | 0.00 | 30 | 1018.1 |
| 20260506204528 | 12 | 115 | 14.5 | 27.4 | 0.00 | 0.10 | 0.00 | 29 | 1018.3 |
| 20260506203008 | 12 | 86 | 8.0 | 30.6 | 0.00 | 0.10 | 0.00 | 29 | 1018.6 |
| 20260506201509 | 11 | 100 | 12.9 | 20.9 | 0.00 | 0.10 | 0.00 | 29 | 1018.8 |
| 20260506200136 | 11 | 136 | 14.5 | 25.7 | 0.00 | 0.13 | 0.00 | 29 | 1019.0 |
| 20260506194600 | 10 | 177 | 8.0 | 27.4 | 0.00 | 0.13 | 0.00 | 30 | 1019.4 |
| 20260506193051 | 10 | 21 | 8.0 | 29.0 | 0.00 | 0.13 | 0.00 | 33 | 1019.6 |
| 20260506191549 | 10 | 116 | 14.5 | 27.4 | 0.00 | 0.13 | 0.00 | 32 | 1019.8 |
| 20260506190047 | 10 | 317 | 14.5 | 24.1 | 0.00 | 0.18 | 0.00 | 33 | 1019.9 |
| 20260506184551 | 10 | 231 | 0.0 | 12.9 | 0.00 | 0.18 | 0.00 | 34 | 1020.1 |
| 20260506183043 | 9 | 134 | 9.7 | 27.4 | 0.00 | 0.18 | 0.00 | 36 | 1020.1 |
| 20260506181543 | 9 | 173 | 1.6 | 30.6 | 0.00 | 0.18 | 0.00 | 36 | 1020.4 |
| 20260506180048 | 8 | 98 | 20.9 | 32.2 | 0.00 | 0.25 | 0.00 | 38 | 1020.6 |
| 20260506174527 | 8 | 124 | 9.7 | 17.7 | 0.00 | 0.25 | 0.00 | 41 | 1020.7 |
| 20260506173024 | 7 | 160 | 9.7 | 22.5 | 0.00 | 0.25 | 0.00 | 42 | 1020.8 |
| 20260506171537 | 8 | 153 | 9.7 | 20.9 | 0.00 | 0.25 | 0.00 | 40 | 1020.9 |
| 20260506170021 | 7 | 53 | 11.3 | 17.7 | 0.00 | 0.25 | 0.00 | 42 | 1021.1 |
| 20260506164521 | 6 | 139 | 1.6 | 12.9 | 0.00 | 0.25 | 0.00 | 44 | 1021.2 |
| 20260506163022 | 7 | 139 | 4.8 | 12.9 | 0.00 | 0.25 | 0.00 | 44 | 1021.1 |
| 20260506161524 | 6 | 176 | 4.8 | 17.7 | 0.00 | 0.25 | 0.00 | 48 | 1021.2 |